Terminal Aerodrome Forecast
Issued by NWS Miami, FL

Home | Current Version | Previous Version | Text Only | Print | Product List | Glossary On
Versions: 1 2 3 4 5 6 7 8 9 10 11 12 13 14 15 16 17 18 19 20 21 22 23 24 25
000
FTUS42 KMFL 310301 AAA
TAFAPF
TAF AMD
KAPF 310301Z 3103/3124 11003KT P6SM FEW030 SCT250
     FM311500 11007KT P6SM SCT025 SCT250
     FM311800 22008KT P6SM VCTS SCT040CB SCT100=

USA.gov is the U.S. government's official web portal to all federal, state and local government web resources and services.